sensor_id;sensor_type;location;lat;lon;timestamp;P1;durP1;ratioP1;P2;durP2;ratioP2
56307;SDS011;42217;50.422;7.210;2023-06-22T00:00:51;536.33;;;508.27;;
56307;SDS011;42217;50.422;7.210;2023-06-22T00:03:18;518.60;;;491.40;;
56307;SDS011;42217;50.422;7.210;2023-06-22T00:05:45;462.52;;;439.20;;
56307;SDS011;42217;50.422;7.210;2023-06-22T00:08:11;465.98;;;442.42;;
56307;SDS011;42217;50.422;7.210;2023-06-22T00:10:37;484.67;;;460.15;;
56307;SDS011;42217;50.422;7.210;2023-06-22T00:13:03;441.77;;;419.77;;
56307;SDS011;42217;50.422;7.210;2023-06-22T00:15:31;443.60;;;421.38;;
56307;SDS011;42217;50.422;7.210;2023-06-22T00:17:56;462.42;;;439.50;;
56307;SDS011;42217;50.422;7.210;2023-06-22T00:20:23;449.50;;;427.25;;
56307;SDS011;42217;50.422;7.210;2023-06-22T00:22:56;442.15;;;420.02;;
56307;SDS011;42217;50.422;7.210;2023-06-22T00:25:22;448.73;;;426.33;;
56307;SDS011;42217;50.422;7.210;2023-06-22T00:27:48;461.17;;;438.52;;
56307;SDS011;42217;50.422;7.210;2023-06-22T00:30:18;461.50;;;438.27;;
56307;SDS011;42217;50.422;7.210;2023-06-22T00:32:44;509.77;;;482.77;;
56307;SDS011;42217;50.422;7.210;2023-06-22T00:35:13;550.08;;;520.75;;
56307;SDS011;42217;50.422;7.210;2023-06-22T00:37:39;531.78;;;503.95;;
56307;SDS011;42217;50.422;7.210;2023-06-22T00:40:08;448.73;;;426.67;;
56307;SDS011;42217;50.422;7.210;2023-06-22T00:42:36;476.70;;;452.63;;
56307;SDS011;42217;50.422;7.210;2023-06-22T00:45:03;489.13;;;463.98;;
56307;SDS011;42217;50.422;7.210;2023-06-22T00:47:30;547.72;;;518.50;;
56307;SDS011;42217;50.422;7.210;2023-06-22T00:49:55;550.17;;;521.28;;
56307;SDS011;42217;50.422;7.210;2023-06-22T00:52:21;542.42;;;513.72;;
56307;SDS011;42217;50.422;7.210;2023-06-22T00:54:52;534.45;;;505.33;;
56307;SDS011;42217;50.422;7.210;2023-06-22T00:57:18;505.75;;;479.58;;
56307;SDS011;42217;50.422;7.210;2023-06-22T00:59:45;467.02;;;443.63;;
56307;SDS011;42217;50.422;7.210;2023-06-22T01:02:12;485.35;;;461.10;;
56307;SDS011;42217;50.422;7.210;2023-06-22T01:04:39;499.08;;;473.50;;
56307;SDS011;42217;50.422;7.210;2023-06-22T01:12:51;498.38;;;473.05;;
56307;SDS011;42217;50.422;7.210;2023-06-22T01:15:25;517.85;;;490.67;;
56307;SDS011;42217;50.422;7.210;2023-06-22T01:17:55;531.45;;;503.48;;
56307;SDS011;42217;50.422;7.210;2023-06-22T01:20:23;535.47;;;506.98;;
56307;SDS011;42217;50.422;7.210;2023-06-22T01:23:11;515.33;;;488.48;;
56307;SDS011;42217;50.422;7.210;2023-06-22T01:26:02;504.60;;;478.83;;
56307;SDS011;42217;50.422;7.210;2023-06-22T01:28:52;519.88;;;493.20;;
56307;SDS011;42217;50.422;7.210;2023-06-22T01:31:22;530.95;;;503.00;;
56307;SDS011;42217;50.422;7.210;2023-06-22T01:33:53;542.03;;;513.00;;
56307;SDS011;42217;50.422;7.210;2023-06-22T01:36:22;511.48;;;485.67;;
56307;SDS011;42217;50.422;7.210;2023-06-22T01:38:50;539.75;;;511.75;;
56307;SDS011;42217;50.422;7.210;2023-06-22T01:41:19;536.80;;;508.67;;
56307;SDS011;42217;50.422;7.210;2023-06-22T01:43:46;546.70;;;517.70;;
56307;SDS011;42217;50.422;7.210;2023-06-22T01:46:13;521.72;;;494.77;;
56307;SDS011;42217;50.422;7.210;2023-06-22T01:48:39;509.13;;;482.85;;
56307;SDS011;42217;50.422;7.210;2023-06-22T01:51:05;540.70;;;512.30;;
56307;SDS011;42217;50.422;7.210;2023-06-22T01:53:31;529.13;;;501.35;;
56307;SDS011;42217;50.422;7.210;2023-06-22T01:55:57;538.33;;;510.13;;
56307;SDS011;42217;50.422;7.210;2023-06-22T01:58:25;537.10;;;508.80;;
56307;SDS011;42217;50.422;7.210;2023-06-22T02:00:57;550.85;;;521.58;;
56307;SDS011;42217;50.422;7.210;2023-06-22T02:03:32;538.03;;;509.83;;
56307;SDS011;42217;50.422;7.210;2023-06-22T02:06:06;561.65;;;531.80;;
56307;SDS011;42217;50.422;7.210;2023-06-22T02:08:38;566.78;;;536.50;;
56307;SDS011;42217;50.422;7.210;2023-06-22T02:11:07;532.53;;;504.50;;
56307;SDS011;42217;50.422;7.210;2023-06-22T02:13:36;552.47;;;522.92;;
56307;SDS011;42217;50.422;7.210;2023-06-22T02:16:02;559.80;;;529.55;;
56307;SDS011;42217;50.422;7.210;2023-06-22T02:18:28;569.67;;;538.72;;
56307;SDS011;42217;50.422;7.210;2023-06-22T02:20:54;582.42;;;550.47;;
56307;SDS011;42217;50.422;7.210;2023-06-22T02:23:20;529.58;;;501.55;;
56307;SDS011;42217;50.422;7.210;2023-06-22T02:25:46;554.13;;;524.75;;
56307;SDS011;42217;50.422;7.210;2023-06-22T02:28:11;564.42;;;534.03;;
56307;SDS011;42217;50.422;7.210;2023-06-22T02:30:37;565.90;;;536.10;;
56307;SDS011;42217;50.422;7.210;2023-06-22T02:33:03;563.20;;;533.53;;
56307;SDS011;42217;50.422;7.210;2023-06-22T02:35:29;547.90;;;518.95;;
56307;SDS011;42217;50.422;7.210;2023-06-22T02:38:01;563.70;;;534.10;;
56307;SDS011;42217;50.422;7.210;2023-06-22T02:40:28;589.78;;;558.22;;
56307;SDS011;42217;50.422;7.210;2023-06-22T02:42:55;603.22;;;570.15;;
56307;SDS011;42217;50.422;7.210;2023-06-22T02:45:23;615.85;;;580.30;;
56307;SDS011;42217;50.422;7.210;2023-06-22T02:47:49;601.80;;;568.67;;
56307;SDS011;42217;50.422;7.210;2023-06-22T02:50:15;560.40;;;529.35;;
56307;SDS011;42217;50.422;7.210;2023-06-22T02:52:40;583.90;;;551.45;;
56307;SDS011;42217;50.422;7.210;2023-06-22T02:55:06;565.10;;;534.65;;
56307;SDS011;42217;50.422;7.210;2023-06-22T02:57:33;583.95;;;552.38;;
56307;SDS011;42217;50.422;7.210;2023-06-22T02:59:59;574.00;;;542.90;;
56307;SDS011;42217;50.422;7.210;2023-06-22T03:02:24;590.65;;;558.42;;
56307;SDS011;42217;50.422;7.210;2023-06-22T03:04:51;614.25;;;580.30;;
56307;SDS011;42217;50.422;7.210;2023-06-22T03:07:18;623.05;;;588.17;;
56307;SDS011;42217;50.422;7.210;2023-06-22T03:09:44;637.45;;;600.90;;
56307;SDS011;42217;50.422;7.210;2023-06-22T03:12:10;649.30;;;612.20;;
56307;SDS011;42217;50.422;7.210;2023-06-22T03:14:36;652.88;;;614.78;;
56307;SDS011;42217;50.422;7.210;2023-06-22T03:17:04;680.03;;;640.28;;
56307;SDS011;42217;50.422;7.210;2023-06-22T03:19:31;691.85;;;649.50;;
56307;SDS011;42217;50.422;7.210;2023-06-22T03:21:57;683.47;;;641.90;;
56307;SDS011;42217;50.422;7.210;2023-06-22T03:24:24;684.95;;;643.17;;
56307;SDS011;42217;50.422;7.210;2023-06-22T03:26:50;667.42;;;627.13;;
56307;SDS011;42217;50.422;7.210;2023-06-22T03:29:16;682.42;;;639.97;;
56307;SDS011;42217;50.422;7.210;2023-06-22T03:31:42;671.42;;;630.58;;
56307;SDS011;42217;50.422;7.210;2023-06-22T03:34:07;676.22;;;634.42;;
56307;SDS011;42217;50.422;7.210;2023-06-22T03:36:33;679.95;;;637.58;;
56307;SDS011;42217;50.422;7.210;2023-06-22T03:38:58;709.58;;;664.88;;
56307;SDS011;42217;50.422;7.210;2023-06-22T03:41:24;719.70;;;673.92;;
56307;SDS011;42217;50.422;7.210;2023-06-22T03:43:50;706.35;;;661.83;;
56307;SDS011;42217;50.422;7.210;2023-06-22T03:46:16;728.95;;;682.97;;
56307;SDS011;42217;50.422;7.210;2023-06-22T03:48:41;721.33;;;675.92;;
56307;SDS011;42217;50.422;7.210;2023-06-22T03:51:07;717.13;;;672.08;;
56307;SDS011;42217;50.422;7.210;2023-06-22T03:53:33;714.13;;;668.70;;
56307;SDS011;42217;50.422;7.210;2023-06-22T03:55:58;704.97;;;660.45;;
56307;SDS011;42217;50.422;7.210;2023-06-22T03:58:24;718.10;;;672.10;;
56307;SDS011;42217;50.422;7.210;2023-06-22T04:00:51;724.47;;;678.75;;
56307;SDS011;42217;50.422;7.210;2023-06-22T04:03:18;704.03;;;659.70;;
56307;SDS011;42217;50.422;7.210;2023-06-22T04:05:44;701.67;;;657.75;;
56307;SDS011;42217;50.422;7.210;2023-06-22T04:08:11;674.10;;;632.03;;
56307;SDS011;42217;50.422;7.210;2023-06-22T04:10:38;679.53;;;636.90;;
56307;SDS011;42217;50.422;7.210;2023-06-22T04:13:03;675.30;;;633.28;;
56307;SDS011;42217;50.422;7.210;2023-06-22T04:15:29;662.50;;;621.50;;
56307;SDS011;42217;50.422;7.210;2023-06-22T04:17:55;664.95;;;623.65;;
56307;SDS011;42217;50.422;7.210;2023-06-22T04:20:22;691.63;;;647.97;;
56307;SDS011;42217;50.422;7.210;2023-06-22T04:22:50;695.88;;;651.92;;
56307;SDS011;42217;50.422;7.210;2023-06-22T04:25:19;717.58;;;672.17;;
56307;SDS011;42217;50.422;7.210;2023-06-22T04:27:45;740.75;;;691.45;;
56307;SDS011;42217;50.422;7.210;2023-06-22T04:30:11;724.75;;;677.60;;
56307;SDS011;42217;50.422;7.210;2023-06-22T04:32:40;739.10;;;691.13;;
56307;SDS011;42217;50.422;7.210;2023-06-22T04:35:06;752.15;;;703.42;;
56307;SDS011;42217;50.422;7.210;2023-06-22T04:37:32;759.30;;;710.75;;
56307;SDS011;42217;50.422;7.210;2023-06-22T04:39:59;741.85;;;693.85;;
56307;SDS011;42217;50.422;7.210;2023-06-22T04:42:28;758.63;;;709.47;;
56307;SDS011;42217;50.422;7.210;2023-06-22T04:44:53;763.47;;;714.00;;
56307;SDS011;42217;50.422;7.210;2023-06-22T04:47:19;743.28;;;695.17;;
56307;SDS011;42217;50.422;7.210;2023-06-22T04:49:45;753.00;;;704.00;;
56307;SDS011;42217;50.422;7.210;2023-06-22T04:52:11;764.22;;;714.72;;
56307;SDS011;42217;50.422;7.210;2023-06-22T04:54:38;754.47;;;705.55;;
56307;SDS011;42217;50.422;7.210;2023-06-22T04:57:12;761.13;;;711.28;;
56307;SDS011;42217;50.422;7.210;2023-06-22T04:59:38;736.95;;;689.95;;
56307;SDS011;42217;50.422;7.210;2023-06-22T05:02:06;684.22;;;642.50;;
56307;SDS011;42217;50.422;7.210;2023-06-22T05:04:32;662.58;;;622.67;;
56307;SDS011;42217;50.422;7.210;2023-06-22T05:06:59;598.40;;;564.15;;
56307;SDS011;42217;50.422;7.210;2023-06-22T05:09:25;585.30;;;551.97;;
56307;SDS011;42217;50.422;7.210;2023-06-22T05:11:51;622.38;;;586.20;;
56307;SDS011;42217;50.422;7.210;2023-06-22T05:14:17;578.80;;;545.80;;
56307;SDS011;42217;50.422;7.210;2023-06-22T05:16:44;568.28;;;536.42;;
56307;SDS011;42217;50.422;7.210;2023-06-22T05:19:10;601.33;;;566.97;;
56307;SDS011;42217;50.422;7.210;2023-06-22T05:21:36;595.67;;;561.38;;
56307;SDS011;42217;50.422;7.210;2023-06-22T05:24:02;586.95;;;553.25;;
56307;SDS011;42217;50.422;7.210;2023-06-22T05:26:32;604.35;;;569.80;;
56307;SDS011;42217;50.422;7.210;2023-06-22T05:28:59;586.28;;;553.17;;
56307;SDS011;42217;50.422;7.210;2023-06-22T05:31:27;650.20;;;611.38;;
56307;SDS011;42217;50.422;7.210;2023-06-22T05:33:53;684.33;;;642.65;;
56307;SDS011;42217;50.422;7.210;2023-06-22T05:36:20;691.25;;;648.17;;
56307;SDS011;42217;50.422;7.210;2023-06-22T05:38:46;656.08;;;616.95;;
56307;SDS011;42217;50.422;7.210;2023-06-22T05:41:12;616.92;;;580.38;;
56307;SDS011;42217;50.422;7.210;2023-06-22T05:43:39;562.13;;;530.67;;
56307;SDS011;42217;50.422;7.210;2023-06-22T05:46:04;559.22;;;527.97;;
56307;SDS011;42217;50.422;7.210;2023-06-22T05:48:30;548.65;;;518.08;;
56307;SDS011;42217;50.422;7.210;2023-06-22T05:50:56;541.60;;;511.95;;
56307;SDS011;42217;50.422;7.210;2023-06-22T05:53:22;438.40;;;415.75;;
56307;SDS011;42217;50.422;7.210;2023-06-22T05:55:48;354.45;;;336.75;;
56307;SDS011;42217;50.422;7.210;2023-06-22T05:58:14;357.27;;;339.83;;
56307;SDS011;42217;50.422;7.210;2023-06-22T06:00:40;419.58;;;398.20;;
56307;SDS011;42217;50.422;7.210;2023-06-22T06:03:08;369.35;;;351.00;;
56307;SDS011;42217;50.422;7.210;2023-06-22T06:05:35;371.90;;;352.35;;
56307;SDS011;42217;50.422;7.210;2023-06-22T06:08:02;318.90;;;303.27;;
56307;SDS011;42217;50.422;7.210;2023-06-22T06:10:30;383.17;;;363.73;;
56307;SDS011;42217;50.422;7.210;2023-06-22T06:12:57;344.92;;;327.67;;
56307;SDS011;42217;50.422;7.210;2023-06-22T06:15:23;316.58;;;301.10;;
56307;SDS011;42217;50.422;7.210;2023-06-22T06:17:49;269.58;;;256.45;;
56307;SDS011;42217;50.422;7.210;2023-06-22T06:20:20;295.83;;;281.13;;
56307;SDS011;42217;50.422;7.210;2023-06-22T06:22:47;321.40;;;305.17;;
56307;SDS011;42217;50.422;7.210;2023-06-22T06:25:13;285.73;;;271.58;;
56307;SDS011;42217;50.422;7.210;2023-06-22T06:27:43;297.15;;;282.45;;
56307;SDS011;42217;50.422;7.210;2023-06-22T06:30:10;302.92;;;288.13;;
56307;SDS011;42217;50.422;7.210;2023-06-22T06:32:37;299.17;;;283.70;;
56307;SDS011;42217;50.422;7.210;2023-06-22T06:35:04;282.80;;;268.98;;
56307;SDS011;42217;50.422;7.210;2023-06-22T06:37:31;304.40;;;289.60;;
56307;SDS011;42217;50.422;7.210;2023-06-22T06:39:57;286.27;;;272.27;;
56307;SDS011;42217;50.422;7.210;2023-06-22T06:42:22;276.13;;;262.05;;
56307;SDS011;42217;50.422;7.210;2023-06-22T06:44:49;310.83;;;295.55;;
56307;SDS011;42217;50.422;7.210;2023-06-22T06:47:15;300.52;;;285.80;;
56307;SDS011;42217;50.422;7.210;2023-06-22T06:49:42;325.30;;;309.05;;
56307;SDS011;42217;50.422;7.210;2023-06-22T06:52:08;324.92;;;308.13;;
56307;SDS011;42217;50.422;7.210;2023-06-22T06:54:33;274.23;;;260.90;;
56307;SDS011;42217;50.422;7.210;2023-06-22T06:56:59;275.27;;;261.52;;
56307;SDS011;42217;50.422;7.210;2023-06-22T06:59:25;334.05;;;317.42;;
56307;SDS011;42217;50.422;7.210;2023-06-22T07:01:50;342.67;;;326.15;;
56307;SDS011;42217;50.422;7.210;2023-06-22T07:04:16;336.38;;;319.67;;
56307;SDS011;42217;50.422;7.210;2023-06-22T07:06:42;304.90;;;289.52;;
56307;SDS011;42217;50.422;7.210;2023-06-22T07:09:08;290.90;;;276.83;;
56307;SDS011;42217;50.422;7.210;2023-06-22T07:11:33;310.08;;;295.13;;
56307;SDS011;42217;50.422;7.210;2023-06-22T07:14:00;299.77;;;285.38;;
56307;SDS011;42217;50.422;7.210;2023-06-22T07:16:26;273.13;;;259.40;;
56307;SDS011;42217;50.422;7.210;2023-06-22T07:18:53;228.57;;;217.15;;
56307;SDS011;42217;50.422;7.210;2023-06-22T07:21:18;233.77;;;221.88;;
56307;SDS011;42217;50.422;7.210;2023-06-22T07:23:44;253.55;;;241.00;;
56307;SDS011;42217;50.422;7.210;2023-06-22T07:26:10;293.08;;;278.98;;
56307;SDS011;42217;50.422;7.210;2023-06-22T07:28:37;356.05;;;338.35;;
56307;SDS011;42217;50.422;7.210;2023-06-22T07:31:05;401.85;;;381.55;;
56307;SDS011;42217;50.422;7.210;2023-06-22T07:33:31;402.85;;;382.50;;
56307;SDS011;42217;50.422;7.210;2023-06-22T07:35:57;397.45;;;377.55;;
56307;SDS011;42217;50.422;7.210;2023-06-22T07:38:22;406.25;;;385.30;;
56307;SDS011;42217;50.422;7.210;2023-06-22T07:40:48;399.60;;;379.25;;
56307;SDS011;42217;50.422;7.210;2023-06-22T07:43:15;406.48;;;386.13;;
56307;SDS011;42217;50.422;7.210;2023-06-22T07:45:43;411.83;;;390.83;;
56307;SDS011;42217;50.422;7.210;2023-06-22T07:48:17;393.23;;;373.17;;
56307;SDS011;42217;50.422;7.210;2023-06-22T07:50:45;370.98;;;352.15;;
56307;SDS011;42217;50.422;7.210;2023-06-22T07:53:10;358.13;;;339.98;;
56307;SDS011;42217;50.422;7.210;2023-06-22T07:55:36;373.05;;;354.25;;
56307;SDS011;42217;50.422;7.210;2023-06-22T07:58:02;326.75;;;310.52;;
56307;SDS011;42217;50.422;7.210;2023-06-22T08:00:27;339.15;;;322.30;;
56307;SDS011;42217;50.422;7.210;2023-06-22T08:02:53;342.23;;;325.10;;
56307;SDS011;42217;50.422;7.210;2023-06-22T08:05:19;350.70;;;333.52;;
56307;SDS011;42217;50.422;7.210;2023-06-22T08:07:45;342.30;;;325.65;;
56307;SDS011;42217;50.422;7.210;2023-06-22T08:10:11;340.75;;;323.75;;
56307;SDS011;42217;50.422;7.210;2023-06-22T08:12:38;354.92;;;337.38;;
56307;SDS011;42217;50.422;7.210;2023-06-22T08:15:06;343.85;;;326.90;;
56307;SDS011;42217;50.422;7.210;2023-06-22T08:17:32;360.23;;;342.58;;
56307;SDS011;42217;50.422;7.210;2023-06-22T08:19:58;371.60;;;353.15;;
56307;SDS011;42217;50.422;7.210;2023-06-22T08:22:24;376.70;;;358.02;;
56307;SDS011;42217;50.422;7.210;2023-06-22T08:24:50;346.98;;;329.42;;
56307;SDS011;42217;50.422;7.210;2023-06-22T08:27:15;359.65;;;342.08;;
56307;SDS011;42217;50.422;7.210;2023-06-22T08:29:43;351.45;;;334.00;;
56307;SDS011;42217;50.422;7.210;2023-06-22T08:32:10;342.73;;;326.02;;
56307;SDS011;42217;50.422;7.210;2023-06-22T08:34:37;346.40;;;329.10;;
56307;SDS011;42217;50.422;7.210;2023-06-22T08:37:07;364.73;;;346.90;;
56307;SDS011;42217;50.422;7.210;2023-06-22T08:39:33;345.25;;;328.40;;
56307;SDS011;42217;50.422;7.210;2023-06-22T08:41:59;347.50;;;329.45;;
56307;SDS011;42217;50.422;7.210;2023-06-22T08:44:25;353.10;;;335.92;;
56307;SDS011;42217;50.422;7.210;2023-06-22T08:46:50;361.25;;;342.90;;
56307;SDS011;42217;50.422;7.210;2023-06-22T08:49:16;341.67;;;325.00;;
56307;SDS011;42217;50.422;7.210;2023-06-22T08:51:42;349.80;;;332.65;;
56307;SDS011;42217;50.422;7.210;2023-06-22T08:54:09;352.63;;;335.42;;
56307;SDS011;42217;50.422;7.210;2023-06-22T08:56:35;280.15;;;266.20;;
56307;SDS011;42217;50.422;7.210;2023-06-22T08:59:01;248.55;;;235.93;;
56307;SDS011;42217;50.422;7.210;2023-06-22T09:01:27;267.70;;;254.73;;
56307;SDS011;42217;50.422;7.210;2023-06-22T09:03:52;245.82;;;233.77;;
56307;SDS011;42217;50.422;7.210;2023-06-22T09:06:22;244.35;;;232.15;;
56307;SDS011;42217;50.422;7.210;2023-06-22T09:08:49;245.68;;;233.65;;
56307;SDS011;42217;50.422;7.210;2023-06-22T09:11:14;251.80;;;239.27;;
56307;SDS011;42217;50.422;7.210;2023-06-22T09:13:40;285.35;;;271.27;;
56307;SDS011;42217;50.422;7.210;2023-06-22T09:16:06;294.13;;;279.67;;
56307;SDS011;42217;50.422;7.210;2023-06-22T09:18:31;334.45;;;317.65;;
56307;SDS011;42217;50.422;7.210;2023-06-22T09:20:58;351.52;;;333.77;;
56307;SDS011;42217;50.422;7.210;2023-06-22T09:23:24;361.67;;;343.92;;
56307;SDS011;42217;50.422;7.210;2023-06-22T09:25:50;349.02;;;331.70;;
56307;SDS011;42217;50.422;7.210;2023-06-22T09:28:16;358.00;;;340.08;;
56307;SDS011;42217;50.422;7.210;2023-06-22T09:30:42;346.48;;;329.50;;
56307;SDS011;42217;50.422;7.210;2023-06-22T09:33:09;361.08;;;343.08;;
56307;SDS011;42217;50.422;7.210;2023-06-22T09:35:35;364.70;;;346.52;;
56307;SDS011;42217;50.422;7.210;2023-06-22T09:38:01;390.80;;;370.88;;
56307;SDS011;42217;50.422;7.210;2023-06-22T09:40:26;384.65;;;364.95;;
56307;SDS011;42217;50.422;7.210;2023-06-22T09:42:52;372.40;;;353.83;;
56307;SDS011;42217;50.422;7.210;2023-06-22T09:45:18;367.08;;;348.98;;
56307;SDS011;42217;50.422;7.210;2023-06-22T09:47:43;349.08;;;331.35;;
56307;SDS011;42217;50.422;7.210;2023-06-22T09:50:09;307.55;;;292.58;;
56307;SDS011;42217;50.422;7.210;2023-06-22T09:52:35;398.90;;;378.88;;
56307;SDS011;42217;50.422;7.210;2023-06-22T09:55:01;435.90;;;413.25;;
56307;SDS011;42217;50.422;7.210;2023-06-22T09:57:28;425.25;;;403.45;;
56307;SDS011;42217;50.422;7.210;2023-06-22T09:59:54;480.15;;;454.88;;
56307;SDS011;42217;50.422;7.210;2023-06-22T10:02:20;490.10;;;463.92;;
56307;SDS011;42217;50.422;7.210;2023-06-22T10:04:47;475.17;;;449.95;;
56307;SDS011;42217;50.422;7.210;2023-06-22T10:07:13;540.50;;;511.05;;
56307;SDS011;42217;50.422;7.210;2023-06-22T10:09:39;427.17;;;404.88;;
56307;SDS011;42217;50.422;7.210;2023-06-22T10:12:04;494.50;;;467.20;;
56307;SDS011;42217;50.422;7.210;2023-06-22T10:14:30;531.03;;;501.55;;
56307;SDS011;42217;50.422;7.210;2023-06-22T10:16:56;470.52;;;445.70;;
56307;SDS011;42217;50.422;7.210;2023-06-22T10:19:22;487.63;;;461.13;;
56307;SDS011;42217;50.422;7.210;2023-06-22T10:21:48;535.92;;;506.10;;
56307;SDS011;42217;50.422;7.210;2023-06-22T10:24:13;491.63;;;464.75;;
56307;SDS011;42217;50.422;7.210;2023-06-22T10:26:39;589.97;;;555.90;;
56307;SDS011;42217;50.422;7.210;2023-06-22T10:29:05;578.50;;;545.78;;
56307;SDS011;42217;50.422;7.210;2023-06-22T10:31:30;623.50;;;587.05;;
56307;SDS011;42217;50.422;7.210;2023-06-22T10:33:56;660.50;;;620.25;;
56307;SDS011;42217;50.422;7.210;2023-06-22T10:36:22;700.55;;;656.00;;
56307;SDS011;42217;50.422;7.210;2023-06-22T10:38:48;698.00;;;653.28;;
56307;SDS011;42217;50.422;7.210;2023-06-22T10:41:14;700.72;;;656.85;;
56307;SDS011;42217;50.422;7.210;2023-06-22T10:43:40;714.28;;;668.55;;
56307;SDS011;42217;50.422;7.210;2023-06-22T10:46:06;741.42;;;693.08;;
56307;SDS011;42217;50.422;7.210;2023-06-22T10:48:32;721.38;;;676.00;;
56307;SDS011;42217;50.422;7.210;2023-06-22T10:50:58;647.97;;;609.63;;
56307;SDS011;42217;50.422;7.210;2023-06-22T10:53:23;666.20;;;626.45;;
56307;SDS011;42217;50.422;7.210;2023-06-22T10:55:49;658.75;;;620.40;;
56307;SDS011;42217;50.422;7.210;2023-06-22T10:58:17;688.00;;;646.83;;
56307;SDS011;42217;50.422;7.210;2023-06-22T11:00:43;671.92;;;631.55;;
56307;SDS011;42217;50.422;7.210;2023-06-22T11:03:09;702.90;;;659.40;;
56307;SDS011;42217;50.422;7.210;2023-06-22T11:05:35;711.17;;;667.25;;
56307;SDS011;42217;50.422;7.210;2023-06-22T11:08:00;703.65;;;659.88;;
56307;SDS011;42217;50.422;7.210;2023-06-22T11:10:26;689.22;;;646.92;;
56307;SDS011;42217;50.422;7.210;2023-06-22T11:12:52;708.78;;;664.58;;
56307;SDS011;42217;50.422;7.210;2023-06-22T11:15:18;732.22;;;685.95;;
56307;SDS011;42217;50.422;7.210;2023-06-22T11:17:44;735.50;;;688.90;;
56307;SDS011;42217;50.422;7.210;2023-06-22T11:20:10;733.63;;;686.95;;
56307;SDS011;42217;50.422;7.210;2023-06-22T11:22:39;792.15;;;739.85;;
56307;SDS011;42217;50.422;7.210;2023-06-22T11:25:06;786.22;;;733.90;;
56307;SDS011;42217;50.422;7.210;2023-06-22T11:27:32;767.92;;;716.35;;
56307;SDS011;42217;50.422;7.210;2023-06-22T11:29:58;741.25;;;693.53;;
56307;SDS011;42217;50.422;7.210;2023-06-22T11:32:24;760.30;;;710.10;;
56307;SDS011;42217;50.422;7.210;2023-06-22T11:34:49;769.58;;;718.13;;
56307;SDS011;42217;50.422;7.210;2023-06-22T11:37:15;741.22;;;691.83;;
56307;SDS011;42217;50.422;7.210;2023-06-22T11:39:41;742.38;;;693.83;;
56307;SDS011;42217;50.422;7.210;2023-06-22T11:42:07;742.78;;;695.03;;
56307;SDS011;42217;50.422;7.210;2023-06-22T11:44:34;764.03;;;713.53;;
56307;SDS011;42217;50.422;7.210;2023-06-22T11:46:59;761.53;;;711.53;;
56307;SDS011;42217;50.422;7.210;2023-06-22T11:49:26;734.50;;;687.55;;
56307;SDS011;42217;50.422;7.210;2023-06-22T11:51:52;754.58;;;705.80;;
56307;SDS011;42217;50.422;7.210;2023-06-22T11:54:18;751.50;;;703.08;;
56307;SDS011;42217;50.422;7.210;2023-06-22T11:56:43;752.50;;;703.70;;
56307;SDS011;42217;50.422;7.210;2023-06-22T11:59:09;710.88;;;666.30;;
56307;SDS011;42217;50.422;7.210;2023-06-22T12:01:35;703.88;;;660.30;;
56307;SDS011;42217;50.422;7.210;2023-06-22T12:04:01;632.72;;;595.95;;
56307;SDS011;42217;50.422;7.210;2023-06-22T12:06:30;650.92;;;612.20;;
56307;SDS011;42217;50.422;7.210;2023-06-22T12:08:57;685.70;;;643.50;;
56307;SDS011;42217;50.422;7.210;2023-06-22T12:11:22;682.45;;;640.35;;
56307;SDS011;42217;50.422;7.210;2023-06-22T12:13:48;603.63;;;569.40;;
56307;SDS011;42217;50.422;7.210;2023-06-22T12:16:17;587.13;;;554.35;;
56307;SDS011;42217;50.422;7.210;2023-06-22T12:18:42;630.13;;;592.85;;
56307;SDS011;42217;50.422;7.210;2023-06-22T12:21:08;665.70;;;624.85;;
56307;SDS011;42217;50.422;7.210;2023-06-22T12:23:34;632.50;;;595.17;;
56307;SDS011;42217;50.422;7.210;2023-06-22T12:25:59;518.75;;;490.55;;
56307;SDS011;42217;50.422;7.210;2023-06-22T12:28:26;442.70;;;419.33;;
56307;SDS011;42217;50.422;7.210;2023-06-22T12:30:52;406.90;;;386.27;;
56307;SDS011;42217;50.422;7.210;2023-06-22T12:33:17;416.70;;;395.63;;
56307;SDS011;42217;50.422;7.210;2023-06-22T12:35:43;439.42;;;416.92;;
56307;SDS011;42217;50.422;7.210;2023-06-22T12:38:10;440.08;;;417.20;;
56307;SDS011;42217;50.422;7.210;2023-06-22T12:40:36;378.85;;;359.63;;
56307;SDS011;42217;50.422;7.210;2023-06-22T12:43:01;464.75;;;440.02;;
56307;SDS011;42217;50.422;7.210;2023-06-22T12:45:27;488.50;;;462.67;;
56307;SDS011;42217;50.422;7.210;2023-06-22T12:47:56;553.05;;;521.90;;
56307;SDS011;42217;50.422;7.210;2023-06-22T12:50:22;519.40;;;491.60;;
56307;SDS011;42217;50.422;7.210;2023-06-22T12:52:48;457.17;;;433.63;;
56307;SDS011;42217;50.422;7.210;2023-06-22T12:55:13;436.58;;;414.08;;
56307;SDS011;42217;50.422;7.210;2023-06-22T12:57:39;373.77;;;355.10;;
56307;SDS011;42217;50.422;7.210;2023-06-22T13:00:05;346.67;;;329.42;;
56307;SDS011;42217;50.422;7.210;2023-06-22T13:02:35;386.50;;;367.60;;
56307;SDS011;42217;50.422;7.210;2023-06-22T13:05:02;327.85;;;311.83;;
56307;SDS011;42217;50.422;7.210;2023-06-22T13:07:30;350.65;;;333.38;;
56307;SDS011;42217;50.422;7.210;2023-06-22T13:10:16;220.35;;;209.88;;
56307;SDS011;42217;50.422;7.210;2023-06-22T13:12:42;290.25;;;276.10;;
56307;SDS011;42217;50.422;7.210;2023-06-22T13:15:07;297.17;;;282.83;;
56307;SDS011;42217;50.422;7.210;2023-06-22T13:17:33;280.33;;;266.80;;
56307;SDS011;42217;50.422;7.210;2023-06-22T13:20:01;305.42;;;290.83;;
56307;SDS011;42217;50.422;7.210;2023-06-22T13:22:30;278.40;;;265.00;;
56307;SDS011;42217;50.422;7.210;2023-06-22T13:24:57;322.35;;;306.58;;
56307;SDS011;42217;50.422;7.210;2023-06-22T13:27:23;372.83;;;354.23;;
56307;SDS011;42217;50.422;7.210;2023-06-22T13:29:49;363.40;;;345.33;;
56307;SDS011;42217;50.422;7.210;2023-06-22T13:32:15;357.63;;;340.00;;
56307;SDS011;42217;50.422;7.210;2023-06-22T13:34:41;404.90;;;384.33;;
56307;SDS011;42217;50.422;7.210;2023-06-22T13:37:08;401.92;;;381.60;;
56307;SDS011;42217;50.422;7.210;2023-06-22T13:39:34;382.90;;;363.73;;
56307;SDS011;42217;50.422;7.210;2023-06-22T13:41:59;420.55;;;399.05;;
56307;SDS011;42217;50.422;7.210;2023-06-22T13:44:25;415.27;;;393.63;;
56307;SDS011;42217;50.422;7.210;2023-06-22T13:46:54;419.38;;;397.95;;
56307;SDS011;42217;50.422;7.210;2023-06-22T13:49:20;449.15;;;425.85;;
56307;SDS011;42217;50.422;7.210;2023-06-22T13:51:46;506.65;;;479.58;;
56307;SDS011;42217;50.422;7.210;2023-06-22T13:54:13;524.90;;;496.30;;
56307;SDS011;42217;50.422;7.210;2023-06-22T13:56:39;607.53;;;572.13;;
56307;SDS011;42217;50.422;7.210;2023-06-22T13:59:04;667.15;;;626.50;;